Time;durP1;ratioP1;P1;durP2;ratioP2;P2;SDS_P1;SDS_P2;PMS_P1;PMS_P2;Temp;Humidity;BMP_temperature;BMP_pressure;BME280_temperature;BME280_humidity;BME280_pressure;Samples;Min_cycle;Max_cycle;Signal;HPM_P1;HPM_P2
2021/08/22 00:00:52;;;;;;;7.38;5.55;;;17.10;99.90;;;;;;5058060;28;20024;-74
2021/08/22 00:03:18;;;;;;;8.07;5.70;;;17.00;99.90;;;;;;5053234;28;20496;-74
2021/08/22 00:05:45;;;;;;;10.15;5.32;;;17.00;99.90;;;;;;5052971;28;20032;-74
2021/08/22 00:08:12;;;;;;;9.80;5.70;;;17.00;99.90;;;;;;5053124;28;20033;-79
2021/08/22 00:10:38;;;;;;;8.48;5.70;;;17.10;99.90;;;;;;5053072;28;20026;-76
2021/08/22 00:13:05;;;;;;;12.00;6.75;;;17.10;99.90;;;;;;5051257;28;20048;-74
2021/08/22 00:15:31;;;;;;;11.38;7.10;;;17.10;99.90;;;;;;5052621;28;20025;-75
2021/08/22 00:17:57;;;;;;;11.50;7.35;;;17.20;99.90;;;;;;5052034;28;20025;-74
2021/08/22 00:20:23;;;;;;;9.98;7.00;;;17.20;99.90;;;;;;5068586;28;20031;-78
2021/08/22 00:22:49;;;;;;;9.13;6.82;;;17.20;99.90;;;;;;5052679;28;20029;-74
2021/08/22 00:25:16;;;;;;;14.35;8.48;;;17.30;99.90;;;;;;5052932;28;20433;-74
2021/08/22 00:27:42;;;;;;;14.07;9.27;;;17.20;99.90;;;;;;5052650;28;20032;-74
2021/08/22 00:30:09;;;;;;;11.13;7.05;;;17.20;99.90;;;;;;5063834;28;20025;-75
2021/08/22 00:32:36;;;;;;;11.85;7.03;;;17.20;99.90;;;;;;5052789;28;20041;-75
2021/08/22 00:35:02;;;;;;;11.63;6.75;;;17.30;99.90;;;;;;5052229;28;20037;-74
2021/08/22 00:37:29;;;;;;;9.75;6.72;;;17.30;99.90;;;;;;5052705;28;20024;-74
2021/08/22 00:39:57;;;;;;;10.95;7.13;;;17.40;99.90;;;;;;5061698;28;20016;-73
2021/08/22 00:42:25;;;;;;;10.65;7.18;;;17.40;99.90;;;;;;5068995;28;20044;-74
2021/08/22 00:44:51;;;;;;;10.13;6.97;;;17.40;99.90;;;;;;5052132;28;20043;-74
2021/08/22 00:47:17;;;;;;;10.00;6.65;;;17.50;99.90;;;;;;5053509;28;20029;-74
2021/08/22 00:49:44;;;;;;;9.80;7.30;;;17.60;99.90;;;;;;5052888;28;20407;-75
2021/08/22 00:52:10;;;;;;;10.57;7.15;;;17.60;99.90;;;;;;5055447;28;20036;-74
2021/08/22 00:54:36;;;;;;;10.38;6.50;;;17.60;99.90;;;;;;5065399;28;20037;-75
2021/08/22 00:57:03;;;;;;;11.32;7.95;;;17.50;99.90;;;;;;5055899;28;20044;-74
2021/08/22 00:59:29;;;;;;;11.18;6.75;;;17.50;99.90;;;;;;5056008;28;20032;-74
2021/08/22 01:01:59;;;;;;;10.77;7.57;;;17.50;99.90;;;;;;5055954;28;20021;-74
2021/08/22 01:04:41;;;;;;;11.00;7.60;;;17.50;99.90;;;;;;5056463;28;20029;-74
2021/08/22 01:07:22;;;;;;;10.35;7.50;;;17.50;99.90;;;;;;5056314;28;20382;-75
2021/08/22 01:09:50;;;;;;;10.23;7.10;;;17.60;99.90;;;;;;5055738;28;20021;-81
2021/08/22 01:12:40;;;;;;;8.93;6.60;;;17.50;99.90;;;;;;5070021;28;20053;-75
2021/08/22 01:15:09;;;;;;;11.48;6.93;;;17.50;99.90;;;;;;5065082;28;20032;-76
2021/08/22 01:17:40;;;;;;;10.13;7.53;;;17.50;99.90;;;;;;5071047;28;20382;-76
2021/08/22 01:20:12;;;;;;;9.70;7.18;;;17.60;99.90;;;;;;5054694;28;20037;-76
2021/08/22 01:22:40;;;;;;;12.30;8.45;;;17.60;99.90;;;;;;5055915;28;20446;-75
2021/08/22 01:25:11;;;;;;;10.88;8.10;;;17.60;99.90;;;;;;5056633;28;20025;-75
2021/08/22 01:27:39;;;;;;;16.88;8.93;;;17.60;99.90;;;;;;5056285;28;20378;-75
2021/08/22 01:30:14;;;;;;;9.02;7.25;;;17.60;99.90;;;;;;5055689;28;20044;-76
2021/08/22 01:32:42;;;;;;;12.77;7.68;;;17.60;99.90;;;;;;5055462;28;20493;-75
2021/08/22 01:35:11;;;;;;;8.68;7.65;;;17.60;99.90;;;;;;5062680;28;20044;-75
2021/08/22 01:37:39;;;;;;;9.65;6.70;;;17.50;99.90;;;;;;5061365;28;20378;-75
2021/08/22 01:40:08;;;;;;;9.60;6.40;;;17.50;99.90;;;;;;5054655;28;20025;-75
2021/08/22 01:42:36;;;;;;;9.55;6.30;;;17.50;99.90;;;;;;5055350;28;20036;-75
2021/08/22 01:45:07;;;;;;;8.77;6.28;;;17.50;99.90;;;;;;5056736;28;20036;-74
2021/08/22 01:47:35;;;;;;;8.43;6.40;;;17.50;99.90;;;;;;5064240;28;20033;-74
2021/08/22 01:50:03;;;;;;;9.80;7.03;;;17.50;99.90;;;;;;5054691;28;20058;-74
2021/08/22 01:52:31;;;;;;;9.32;6.38;;;17.50;99.90;;;;;;5055033;28;20044;-74
2021/08/22 01:54:57;;;;;;;7.93;5.93;;;17.40;99.90;;;;;;5055176;28;20113;-74
2021/08/22 01:57:23;;;;;;;9.05;7.25;;;17.40;99.90;;;;;;5054263;28;20037;-74
2021/08/22 01:59:50;;;;;;;10.57;7.18;;;17.40;99.90;;;;;;5055040;28;20032;-75
2021/08/22 02:02:17;;;;;;;9.85;7.07;;;17.40;99.90;;;;;;5055043;28;20041;-74
2021/08/22 02:04:50;;;;;;;8.43;7.20;;;17.40;99.90;;;;;;5059235;28;20024;-75
2021/08/22 02:07:23;;;;;;;8.20;6.63;;;17.40;99.90;;;;;;5070588;28;20045;-75
2021/08/22 02:10:10;;;;;;;10.98;6.95;;;17.40;99.90;;;;;;5054962;28;20033;-76
2021/08/22 02:12:39;;;;;;;11.13;7.60;;;17.40;99.90;;;;;;5054779;28;20485;-75
2021/08/22 02:15:10;;;;;;;9.88;7.47;;;17.40;99.90;;;;;;5054749;28;20021;-72
2021/08/22 02:17:48;;;;;;;9.50;7.28;;;17.40;99.90;;;;;;5055181;28;20020;-74
2021/08/22 02:20:15;;;;;;;10.63;7.32;;;17.30;99.90;;;;;;5054295;28;20370;-73
2021/08/22 02:22:42;;;;;;;11.05;7.78;;;17.30;99.90;;;;;;5054486;28;20035;-76
2021/08/22 02:25:09;;;;;;;10.48;7.22;;;17.30;99.90;;;;;;5054758;28;20035;-74
2021/08/22 02:27:36;;;;;;;11.40;7.20;;;17.30;99.90;;;;;;5054875;28;20032;-74
2021/08/22 02:30:03;;;;;;;12.63;7.95;;;17.30;99.90;;;;;;5054272;28;20036;-74
2021/08/22 02:32:30;;;;;;;9.80;8.13;;;17.20;99.90;;;;;;5054541;28;20045;-74
2021/08/22 02:34:57;;;;;;;13.07;7.72;;;17.30;99.90;;;;;;5069608;28;20045;-74
2021/08/22 02:37:23;;;;;;;11.23;7.35;;;17.20;99.90;;;;;;5063865;28;20036;-74
2021/08/22 02:39:49;;;;;;;8.23;7.00;;;17.20;99.90;;;;;;5063317;28;20048;-73
2021/08/22 02:42:17;;;;;;;8.07;6.88;;;17.20;99.90;;;;;;5054531;28;20044;-74
2021/08/22 02:44:44;;;;;;;11.45;6.95;;;17.20;99.90;;;;;;5056178;28;20029;-73
2021/08/22 02:47:11;;;;;;;8.13;6.68;;;17.10;99.90;;;;;;5059718;28;20025;-72
2021/08/22 02:49:37;;;;;;;11.60;6.57;;;17.30;99.90;;;;;;5069124;28;20024;-73
2021/08/22 02:52:04;;;;;;;11.77;6.30;;;17.30;99.90;;;;;;5072864;28;20051;-73
2021/08/22 02:54:30;;;;;;;9.20;7.22;;;17.20;99.90;;;;;;5072866;28;20036;-73
2021/08/22 02:56:56;;;;;;;11.18;6.65;;;17.20;99.90;;;;;;5056072;28;20029;-74
2021/08/22 02:59:23;;;;;;;10.93;7.22;;;17.20;99.90;;;;;;5053962;28;20052;-73
2021/08/22 03:01:49;;;;;;;10.25;7.28;;;17.30;99.90;;;;;;5066435;28;20048;-73
2021/08/22 03:04:15;;;;;;;9.65;6.55;;;17.20;99.90;;;;;;5058234;28;20040;-73
2021/08/22 03:06:41;;;;;;;10.85;6.63;;;17.20;99.90;;;;;;5053699;28;20043;-81
2021/08/22 03:09:08;;;;;;;9.52;6.45;;;17.20;99.90;;;;;;5053759;28;20051;-73
2021/08/22 03:11:34;;;;;;;10.68;6.57;;;17.30;99.90;;;;;;5053907;28;20017;-73
2021/08/22 03:14:00;;;;;;;9.55;7.10;;;17.30;99.90;;;;;;5066913;28;20049;-74
2021/08/22 03:16:27;;;;;;;9.90;6.82;;;17.30;99.90;;;;;;5052718;28;20037;-74
2021/08/22 03:18:53;;;;;;;7.88;5.90;;;17.40;99.90;;;;;;5067718;28;20045;-73
2021/08/22 03:21:20;;;;;;;8.75;5.72;;;17.30;99.90;;;;;;5062260;28;20031;-74
2021/08/22 03:23:46;;;;;;;8.57;6.22;;;17.30;99.90;;;;;;5054620;28;20029;-74
2021/08/22 03:26:13;;;;;;;10.05;6.15;;;17.30;99.90;;;;;;5054243;28;20029;-74
2021/08/22 03:28:39;;;;;;;7.75;6.00;;;17.30;99.90;;;;;;5053742;28;20386;-74
2021/08/22 03:31:05;;;;;;;9.88;6.10;;;17.30;99.90;;;;;;5053211;28;20029;-73
2021/08/22 03:33:31;;;;;;;8.60;5.50;;;17.20;99.90;;;;;;5054411;28;20131;-74
2021/08/22 03:35:58;;;;;;;9.55;5.75;;;17.30;99.90;;;;;;5063361;28;20048;-73
2021/08/22 03:38:24;;;;;;;8.18;5.30;;;17.20;99.90;;;;;;5065508;28;20385;-73
2021/08/22 03:40:50;;;;;;;8.73;5.70;;;17.20;99.90;;;;;;5062834;28;20025;-73
2021/08/22 03:43:16;;;;;;;7.53;5.90;;;17.20;99.90;;;;;;5053678;28;20036;-73
2021/08/22 03:45:43;;;;;;;8.23;6.30;;;17.10;99.90;;;;;;5061892;28;20027;-81
2021/08/22 03:48:09;;;;;;;8.30;6.10;;;17.10;99.90;;;;;;5067755;28;20120;-74
2021/08/22 03:50:35;;;;;;;8.88;6.03;;;17.10;99.90;;;;;;5053286;28;20025;-74
2021/08/22 03:53:01;;;;;;;8.65;6.75;;;17.10;99.90;;;;;;5053116;28;20073;-74
2021/08/22 03:55:27;;;;;;;10.00;6.82;;;17.10;99.90;;;;;;5052958;28;20382;-73
2021/08/22 03:57:53;;;;;;;9.18;6.70;;;17.10;99.90;;;;;;5052910;28;20037;-73
2021/08/22 04:00:20;;;;;;;10.38;7.63;;;17.10;99.90;;;;;;5052757;28;20037;-74
2021/08/22 04:02:46;;;;;;;11.30;7.43;;;17.20;99.90;;;;;;5052363;28;20029;-73
2021/08/22 04:05:38;;;;;;;8.10;6.88;;;17.20;99.90;;;;;;5067022;28;20037;-74
2021/08/22 04:08:04;;;;;;;10.45;7.60;;;17.10;99.90;;;;;;5053059;28;20048;-73
2021/08/22 04:10:31;;;;;;;9.18;7.68;;;17.10;99.90;;;;;;5052779;28;20035;-74
2021/08/22 04:12:57;;;;;;;10.25;7.50;;;17.10;99.90;;;;;;5062616;28;20028;-73
2021/08/22 04:15:24;;;;;;;10.30;7.63;;;17.10;99.90;;;;;;5056360;28;20044;-74
2021/08/22 04:17:50;;;;;;;10.18;8.20;;;17.20;99.90;;;;;;5066905;28;20021;-73
2021/08/22 04:20:17;;;;;;;8.75;7.55;;;17.20;99.90;;;;;;5054291;28;20024;-73
2021/08/22 04:22:43;;;;;;;10.05;7.20;;;17.20;99.90;;;;;;5067758;28;20041;-73
2021/08/22 04:25:11;;;;;;;10.95;8.50;;;17.20;99.90;;;;;;5070797;28;20040;-73
2021/08/22 04:27:39;;;;;;;11.85;7.72;;;17.20;99.90;;;;;;5059288;28;20036;-74
2021/08/22 04:30:06;;;;;;;11.13;7.28;;;17.30;99.90;;;;;;5059970;28;20041;-74
2021/08/22 04:32:33;;;;;;;10.60;7.97;;;17.30;99.90;;;;;;5055994;28;20029;-74
2021/08/22 04:34:59;;;;;;;11.95;7.78;;;17.20;99.90;;;;;;5063902;28;20037;-74
2021/08/22 04:37:25;;;;;;;10.82;8.30;;;17.20;99.90;;;;;;5052880;28;20029;-74
2021/08/22 04:39:51;;;;;;;10.93;8.25;;;17.20;99.90;;;;;;5052345;28;20021;-74
2021/08/22 04:42:18;;;;;;;10.68;8.43;;;17.10;99.90;;;;;;5052719;28;20032;-73
2021/08/22 04:44:44;;;;;;;12.10;8.30;;;17.20;99.90;;;;;;5052444;28;20040;-79
2021/08/22 04:47:10;;;;;;;11.18;8.48;;;17.10;99.90;;;;;;5052535;28;20024;-73
2021/08/22 04:49:36;;;;;;;13.93;8.77;;;17.10;99.90;;;;;;5052413;28;20037;-73
2021/08/22 04:52:03;;;;;;;13.60;8.45;;;17.10;99.90;;;;;;5052122;28;20029;-73
2021/08/22 04:54:29;;;;;;;13.15;9.55;;;17.10;99.90;;;;;;5066306;28;20373;-73
2021/08/22 04:56:55;;;;;;;12.00;8.57;;;17.30;99.90;;;;;;5054867;28;20036;-74
2021/08/22 04:59:21;;;;;;;10.50;7.65;;;17.30;99.90;;;;;;5052757;28;20041;-74
2021/08/22 05:01:47;;;;;;;11.10;8.50;;;17.30;99.90;;;;;;5051555;28;20363;-74
2021/08/22 05:04:14;;;;;;;10.80;8.38;;;17.40;99.90;;;;;;5052080;28;20052;-74
2021/08/22 05:06:40;;;;;;;10.57;7.47;;;17.40;99.90;;;;;;5052758;28;20021;-74
2021/08/22 05:09:06;;;;;;;10.25;8.43;;;17.40;99.90;;;;;;5059468;28;20025;-74
2021/08/22 05:11:34;;;;;;;10.75;7.53;;;17.50;99.90;;;;;;5060116;28;20059;-73
2021/08/22 05:14:00;;;;;;;10.40;7.50;;;17.50;99.90;;;;;;5055120;28;20050;-71
2021/08/22 05:16:27;;;;;;;7.82;6.70;;;17.50;99.90;;;;;;5063690;28;20047;-73
2021/08/22 05:18:53;;;;;;;8.65;6.40;;;17.60;99.90;;;;;;5051583;28;20032;-74
2021/08/22 05:21:19;;;;;;;8.70;5.90;;;17.60;99.90;;;;;;5052030;28;20039;-74
2021/08/22 05:23:45;;;;;;;10.63;6.15;;;17.60;99.90;;;;;;5051772;28;20373;-82
2021/08/22 05:26:11;;;;;;;14.60;6.63;;;17.60;99.90;;;;;;5051517;28;20465;-74
2021/08/22 05:28:38;;;;;;;9.10;6.20;;;17.60;99.90;;;;;;5051167;28;20067;-75
2021/08/22 05:31:04;;;;;;;7.47;6.50;;;17.60;99.90;;;;;;5051833;28;20017;-75
2021/08/22 05:33:30;;;;;;;11.45;6.85;;;17.70;99.90;;;;;;5051617;28;20041;-75
2021/08/22 05:35:56;;;;;;;8.45;6.90;;;17.70;99.90;;;;;;5060239;28;20373;-75
2021/08/22 05:38:22;;;;;;;9.20;6.35;;;17.70;99.90;;;;;;5052834;28;20033;-75
2021/08/22 05:40:49;;;;;;;10.15;6.20;;;17.70;99.90;;;;;;5060999;28;20047;-75
2021/08/22 05:43:15;;;;;;;8.55;6.40;;;17.70;99.90;;;;;;5055721;28;20037;-75
2021/08/22 05:45:41;;;;;;;7.93;6.65;;;17.70;99.90;;;;;;5055660;28;20036;-74
2021/08/22 05:48:07;;;;;;;7.55;6.00;;;17.70;99.90;;;;;;5054764;28;20096;-75
2021/08/22 05:50:33;;;;;;;8.00;6.05;;;17.80;99.90;;;;;;5065874;28;20044;-75
2021/08/22 05:52:59;;;;;;;11.05;5.80;;;17.90;99.90;;;;;;5054295;28;20043;-75
2021/08/22 05:55:25;;;;;;;8.05;5.88;;;18.10;99.90;;;;;;5055471;28;20025;-75
2021/08/22 05:57:52;;;;;;;7.18;4.88;;;18.30;99.90;;;;;;5062149;28;20032;-76
2021/08/22 06:00:18;;;;;;;6.95;5.70;;;18.50;99.90;;;;;;5060062;28;20036;-75
2021/08/22 06:02:44;;;;;;;8.00;5.60;;;18.50;99.90;;;;;;5055489;28;20383;-76
2021/08/22 06:05:10;;;;;;;7.95;5.30;;;18.50;99.90;;;;;;5054573;28;20029;-74
2021/08/22 06:07:37;;;;;;;7.03;5.28;;;18.40;99.90;;;;;;5058505;28;20025;-75
2021/08/22 06:10:06;;;;;;;7.88;5.55;;;18.40;99.90;;;;;;5070262;28;20036;-74
2021/08/22 06:12:33;;;;;;;6.45;5.32;;;18.40;99.90;;;;;;5055312;28;20029;-74
2021/08/22 06:14:59;;;;;;;10.48;5.20;;;18.30;99.90;;;;;;5063731;28;20036;-75
2021/08/22 06:17:26;;;;;;;11.15;5.43;;;18.30;99.90;;;;;;5055926;28;20032;-75
2021/08/22 06:19:52;;;;;;;8.38;5.45;;;18.30;99.90;;;;;;5054609;28;20029;-75
2021/08/22 06:22:18;;;;;;;9.68;4.90;;;18.20;99.90;;;;;;5054792;28;20036;-74
2021/08/22 06:24:45;;;;;;;6.80;5.40;;;18.30;99.90;;;;;;5054660;28;20025;-73
2021/08/22 06:27:14;;;;;;;10.25;5.95;;;18.20;99.90;;;;;;5054901;28;20357;-74
2021/08/22 06:29:40;;;;;;;8.57;5.95;;;18.30;99.90;;;;;;5053445;28;20462;-73
2021/08/22 06:32:07;;;;;;;8.90;6.05;;;18.20;99.90;;;;;;5054378;28;20386;-74
2021/08/22 06:34:33;;;;;;;8.70;6.63;;;18.30;99.90;;;;;;5056573;28;20364;-74
2021/08/22 06:36:59;;;;;;;9.10;6.20;;;18.40;99.90;;;;;;5055776;28;20036;-75
2021/08/22 06:39:25;;;;;;;8.23;7.32;;;18.50;99.90;;;;;;5055417;28;20036;-75
2021/08/22 06:41:51;;;;;;;8.18;7.00;;;18.60;99.90;;;;;;5054715;28;20041;-75
2021/08/22 06:44:18;;;;;;;11.52;6.82;;;18.70;99.90;;;;;;5054574;28;20029;-74
2021/08/22 06:46:44;;;;;;;12.63;6.93;;;18.80;99.90;;;;;;5063661;28;20033;-74
2021/08/22 06:49:10;;;;;;;8.85;6.13;;;18.90;99.90;;;;;;5054513;28;20025;-77
2021/08/22 06:51:36;;;;;;;7.85;6.53;;;19.10;99.90;;;;;;5054261;28;20032;-75
2021/08/22 06:54:02;;;;;;;10.70;6.45;;;19.20;99.90;;;;;;5065170;28;20044;-74
2021/08/22 06:56:29;;;;;;;7.57;5.43;;;19.30;99.90;;;;;;5054431;28;20036;-73
2021/08/22 06:58:55;;;;;;;7.80;5.82;;;19.40;99.90;;;;;;5054011;28;20051;-76
2021/08/22 07:01:22;;;;;;;8.95;5.80;;;19.50;99.90;;;;;;5061822;28;20032;-75
2021/08/22 07:03:48;;;;;;;9.48;6.60;;;19.60;99.90;;;;;;5053790;28;20052;-80
2021/08/22 07:06:15;;;;;;;6.93;5.90;;;19.60;99.90;;;;;;5054790;28;20040;-75
2021/08/22 07:08:42;;;;;;;5.95;4.95;;;19.60;99.90;;;;;;5054358;28;20025;-75
2021/08/22 07:11:08;;;;;;;9.98;6.50;;;19.70;99.90;;;;;;5052594;28;20033;-76
2021/08/22 07:13:34;;;;;;;9.20;5.97;;;19.50;99.90;;;;;;5053337;28;20382;-75
2021/08/22 07:16:00;;;;;;;8.38;5.63;;;19.50;99.90;;;;;;5053630;28;20049;-75
2021/08/22 07:18:27;;;;;;;8.90;5.40;;;19.60;99.90;;;;;;5054486;28;20029;-75
2021/08/22 07:20:53;;;;;;;6.57;5.32;;;19.50;99.90;;;;;;5054767;28;20025;-75
2021/08/22 07:23:19;;;;;;;8.93;6.65;;;19.70;99.90;;;;;;5053993;28;20032;-74
2021/08/22 07:25:45;;;;;;;8.57;5.53;;;19.60;99.90;;;;;;5054295;28;20477;-74
2021/08/22 07:28:11;;;;;;;6.90;5.70;;;19.60;99.90;;;;;;5053734;28;20029;-74
2021/08/22 07:30:38;;;;;;;9.43;6.45;;;19.70;99.90;;;;;;5061779;28;20021;-76
2021/08/22 07:33:04;;;;;;;8.82;6.13;;;19.60;99.90;;;;;;5072152;28;20370;-74
2021/08/22 07:35:30;;;;;;;7.85;6.10;;;19.60;99.90;;;;;;5068775;28;20044;-75
2021/08/22 07:37:56;;;;;;;9.98;7.35;;;19.50;99.90;;;;;;5065902;28;20488;-75
2021/08/22 07:40:23;;;;;;;9.98;7.80;;;19.60;99.90;;;;;;5073446;28;20032;-75
2021/08/22 07:42:49;;;;;;;9.27;7.35;;;19.60;99.90;;;;;;5054022;28;20028;-88
2021/08/22 07:45:16;;;;;;;8.70;7.80;;;19.60;99.90;;;;;;5054544;28;20041;-74
2021/08/22 07:47:44;;;;;;;11.60;7.75;;;19.50;99.90;;;;;;5061853;28;20049;-75
2021/08/22 07:50:10;;;;;;;10.60;8.43;;;19.50;99.90;;;;;;5057053;28;20039;-75
2021/08/22 07:52:37;;;;;;;11.93;8.55;;;19.50;99.90;;;;;;5053564;28;20362;-74
2021/08/22 07:55:03;;;;;;;11.35;8.85;;;19.50;99.90;;;;;;5051493;28;20470;-75
2021/08/22 07:57:32;;;;;;;12.50;9.65;;;19.60;99.90;;;;;;5053698;28;20029;-74
2021/08/22 07:59:59;;;;;;;11.30;8.45;;;19.60;99.90;;;;;;5053250;28;20032;-75
2021/08/22 08:02:25;;;;;;;10.95;7.13;;;19.70;99.90;;;;;;5053001;28;20044;-75
2021/08/22 08:04:51;;;;;;;8.57;6.88;;;19.80;99.90;;;;;;5052786;28;20039;-75
2021/08/22 08:07:18;;;;;;;9.98;7.07;;;19.70;99.90;;;;;;5072732;28;20032;-74
2021/08/22 08:09:44;;;;;;;8.70;6.55;;;19.70;99.90;;;;;;5068714;28;20029;-74
2021/08/22 08:12:10;;;;;;;8.35;6.72;;;19.70;99.90;;;;;;5052711;28;20036;-74
2021/08/22 08:14:37;;;;;;;10.95;7.32;;;19.70;99.90;;;;;;5054401;28;20059;-74
2021/08/22 08:17:03;;;;;;;9.90;7.60;;;19.80;99.90;;;;;;5069347;28;20032;-74
2021/08/22 08:19:30;;;;;;;11.23;7.30;;;19.90;99.90;;;;;;5053056;28;20036;-73
2021/08/22 08:21:56;;;;;;;13.10;7.80;;;20.10;99.90;;;;;;5063384;28;20036;-74
2021/08/22 08:24:22;;;;;;;10.60;6.80;;;20.20;99.90;;;;;;5062050;28;20462;-73
2021/08/22 08:26:48;;;;;;;10.02;8.48;;;20.30;99.90;;;;;;5051984;28;20032;-74
2021/08/22 08:29:14;;;;;;;10.98;8.55;;;20.30;99.90;;;;;;5051077;28;20386;-74
2021/08/22 08:31:41;;;;;;;10.15;7.38;;;20.30;99.90;;;;;;5053335;28;20398;-74
2021/08/22 08:34:07;;;;;;;9.63;8.07;;;20.40;99.90;;;;;;5052487;28;20048;-75
2021/08/22 08:36:33;;;;;;;11.15;8.13;;;20.40;99.90;;;;;;5053281;28;20029;-75
2021/08/22 08:39:00;;;;;;;13.27;8.70;;;20.40;99.90;;;;;;5051684;28;20037;-75
2021/08/22 08:41:26;;;;;;;11.45;8.95;;;20.60;99.90;;;;;;5052646;28;20037;-76
2021/08/22 08:43:55;;;;;;;13.98;10.45;;;20.90;99.90;;;;;;5060075;28;20055;-75
2021/08/22 08:46:37;;;;;;;13.30;10.15;;;21.10;99.90;;;;;;5055063;28;20360;-74
2021/08/22 08:49:30;;;;;;;13.77;9.77;;;21.20;99.90;;;;;;5053987;28;20024;-75
2021/08/22 08:52:14;;;;;;;13.25;10.75;;;21.20;99.90;;;;;;5052329;28;20068;-75
2021/08/22 08:54:50;;;;;;;14.10;11.20;;;21.10;99.90;;;;;;5073878;28;20043;-74
2021/08/22 08:57:16;;;;;;;11.75;10.07;;;21.00;99.90;;;;;;5073961;28;20044;-73
2021/08/22 08:59:43;;;;;;;12.40;10.02;;;21.00;99.90;;;;;;5066263;28;20031;-75
2021/08/22 09:02:09;;;;;;;11.75;10.55;;;21.00;99.90;;;;;;5073418;28;20037;-75
2021/08/22 09:04:44;;;;;;;11.95;10.70;;;21.00;99.90;;;;;;5054192;28;20040;-74
2021/08/22 09:07:48;;;;;;;15.15;10.00;;;21.00;99.90;;;;;;5053077;28;20212;-75
2021/08/22 09:10:52;;;;;;;12.38;9.18;;;21.00;99.90;;;;;;5056609;28;20021;-74
2021/08/22 09:13:39;;;;;;;9.55;8.50;;;21.10;99.90;;;;;;5060536;28;20373;-75
2021/08/22 09:16:24;;;;;;;12.52;8.10;;;20.90;99.90;;;;;;5058610;28;20032;-74
2021/08/22 09:19:36;;;;;;;10.63;8.45;;;20.80;99.90;;;;;;5062247;28;20029;-74
2021/08/22 09:22:37;;;;;;;10.10;8.25;;;20.80;99.90;;;;;;5057094;28;20454;-74
2021/08/22 09:25:40;;;;;;;11.60;8.50;;;20.70;99.90;;;;;;5056867;28;20024;-75
2021/08/22 09:28:44;;;;;;;11.60;8.25;;;20.70;99.90;;;;;;5056351;28;20048;-73
2021/08/22 09:31:48;;;;;;;9.98;8.15;;;20.90;99.90;;;;;;5056942;28;20455;-75
2021/08/22 09:34:51;;;;;;;13.30;8.88;;;20.90;99.90;;;;;;5057540;28;20378;-73
2021/08/22 09:37:52;;;;;;;12.95;10.13;;;21.00;99.90;;;;;;5056494;28;20024;-74
2021/08/22 09:40:37;;;;;;;;;;;21.00;99.90;;;;;;5064639;28;20032;-74
2021/08/22 09:43:41;;;;;;;11.10;9.88;;;21.20;99.90;;;;;;5065730;28;19904;-72
2021/08/22 09:46:26;;;;;;;11.90;9.57;;;21.20;99.90;;;;;;5065110;28;20040;-73
2021/08/22 09:49:15;;;;;;;12.25;10.70;;;21.30;99.90;;;;;;5056049;28;20029;-76
2021/08/22 09:52:20;;;;;;;11.98;10.35;;;21.20;99.90;;;;;;5056493;28;20036;-74
2021/08/22 09:54:49;;;;;;;12.18;10.77;;;21.20;99.90;;;;;;5007888;28;20042;-73
2021/08/22 09:57:52;;;;;;;16.15;10.23;;;21.30;99.90;;;;;;4987642;28;20511;-74
2021/08/22 10:00:37;;;;;;;12.82;10.20;;;21.40;99.90;;;;;;5019742;28;20042;-74
2021/08/22 10:03:18;;;;;;;13.07;9.15;;;21.50;99.90;;;;;;5008140;28;20030;-73
2021/08/22 10:06:13;;;;;;;11.27;9.32;;;21.50;99.90;;;;;;4995428;28;20049;-74
2021/08/22 10:08:42;;;;;;;13.23;9.73;;;21.50;99.90;;;;;;4995359;28;20034;-74
2021/08/22 10:11:15;;;;;;;11.45;9.68;;;21.60;99.90;;;;;;5003217;28;20129;-74
2021/08/22 10:13:42;;;;;;;11.60;9.15;;;21.60;99.90;;;;;;5013540;28;20045;-74
2021/08/22 10:16:09;;;;;;;9.35;8.30;;;21.50;99.90;;;;;;4999110;28;20440;-75
2021/08/22 10:18:35;;;;;;;9.75;8.70;;;21.40;99.90;;;;;;4994544;28;20499;-75
2021/08/22 10:21:05;;;;;;;8.98;8.07;;;21.40;99.90;;;;;;5007812;28;20029;-74
2021/08/22 10:23:32;;;;;;;8.60;7.70;;;21.50;99.90;;;;;;5009522;28;20479;-77
2021/08/22 10:25:59;;;;;;;10.55;8.48;;;21.50;99.90;;;;;;5007408;28;20396;-75
2021/08/22 10:28:59;;;;;;;9.00;8.10;;;21.60;99.90;;;;;;5004615;28;20045;-73
2021/08/22 10:31:50;;;;;;;10.98;8.25;;;21.40;99.90;;;;;;5026467;28;20045;-76
2021/08/22 10:34:22;;;;;;;9.05;7.90;;;21.40;99.90;;;;;;5057200;28;20032;-73
2021/08/22 10:36:51;;;;;;;8.45;7.60;;;21.40;99.90;;;;;;5075391;28;20043;-75
2021/08/22 10:39:23;;;;;;;8.27;7.38;;;21.40;99.90;;;;;;5066630;28;20437;-76
2021/08/22 10:42:01;;;;;;;10.80;7.75;;;21.20;99.90;;;;;;5064667;28;20376;-75
2021/08/22 10:44:32;;;;;;;8.13;7.32;;;21.20;99.90;;;;;;5067980;28;20040;-78
2021/08/22 10:47:05;;;;;;;9.00;7.97;;;21.30;99.90;;;;;;5060267;28;20492;-73
2021/08/22 10:49:50;;;;;;;10.98;7.82;;;21.30;99.90;;;;;;5066614;28;20033;-76
2021/08/22 10:52:35;;;;;;;9.02;7.35;;;21.20;99.90;;;;;;5064435;28;20029;-74
2021/08/22 10:55:14;;;;;;;9.90;7.47;;;21.30;99.90;;;;;;5073609;28;20037;-74
2021/08/22 10:57:49;;;;;;;10.32;8.57;;;21.30;99.90;;;;;;5062000;28;20028;-74
2021/08/22 11:00:29;;;;;;;10.75;8.15;;;21.30;99.90;;;;;;5054828;28;20048;-73
2021/08/22 11:02:59;;;;;;;10.05;7.15;;;21.40;99.90;;;;;;5055139;28;20052;-75
2021/08/22 11:05:27;;;;;;;8.07;6.47;;;21.40;99.90;;;;;;5054215;28;20389;-74
2021/08/22 11:07:55;;;;;;;8.20;6.70;;;21.50;99.90;;;;;;5085902;28;20021;-75
2021/08/22 11:10:28;;;;;;;7.25;6.55;;;21.70;99.90;;;;;;5053985;28;20025;-74
2021/08/22 11:12:54;;;;;;;8.32;5.97;;;21.60;99.90;;;;;;5053867;28;20033;-75
2021/08/22 11:15:31;;;;;;;7.85;6.57;;;21.90;99.90;;;;;;5061966;28;20382;-74
2021/08/22 11:17:59;;;;;;;6.95;5.60;;;22.60;99.50;;;;;;5077439;28;20043;-75
2021/08/22 11:20:30;;;;;;;6.75;5.45;;;23.00;98.00;;;;;;5058947;28;20025;-76
2021/08/22 11:23:07;;;;;;;9.30;6.30;;;23.10;96.80;;;;;;5068598;28;20024;-76
2021/08/22 11:25:35;;;;;;;8.75;6.28;;;23.10;96.40;;;;;;5068467;28;20481;-75
2021/08/22 11:28:07;;;;;;;7.63;5.75;;;22.70;97.90;;;;;;5052243;28;20466;-74
2021/08/22 11:30:34;;;;;;;7.82;6.40;;;22.20;99.20;;;;;;5053041;28;20025;-74
2021/08/22 11:33:00;;;;;;;7.07;6.35;;;21.70;99.90;;;;;;5052875;28;20029;-74
2021/08/22 11:35:27;;;;;;;7.07;5.85;;;21.50;99.90;;;;;;5051180;28;20041;-75
2021/08/22 11:37:56;;;;;;;8.75;6.13;;;21.40;99.90;;;;;;5053648;28;20409;-75
2021/08/22 11:40:24;;;;;;;8.18;6.40;;;21.30;99.90;;;;;;5053180;28;20029;-75
2021/08/22 11:42:53;;;;;;;6.80;6.10;;;21.30;99.90;;;;;;5054247;28;20450;-74
2021/08/22 11:45:21;;;;;;;7.65;6.10;;;21.20;99.90;;;;;;5062742;28;20033;-77
2021/08/22 11:47:48;;;;;;;8.32;6.22;;;21.20;99.90;;;;;;5054176;28;20037;-75
2021/08/22 11:50:16;;;;;;;5.95;5.15;;;21.30;99.90;;;;;;5054788;28;20189;-76
2021/08/22 11:52:48;;;;;;;6.05;4.75;;;21.30;99.90;;;;;;5053168;28;20032;-77
2021/08/22 11:55:15;;;;;;;6.72;5.70;;;21.40;99.90;;;;;;5067715;28;20389;-82
2021/08/22 11:57:42;;;;;;;6.03;5.38;;;21.40;99.90;;;;;;5055557;28;20048;-76
2021/08/22 12:00:11;;;;;;;7.30;5.70;;;21.60;99.90;;;;;;5053112;28;20443;-74
2021/08/22 12:02:57;;;;;;;8.63;6.47;;;21.70;99.90;;;;;;5062194;28;20025;-74
2021/08/22 12:05:25;;;;;;;7.03;6.30;;;21.70;99.90;;;;;;5053190;28;20037;-73
2021/08/22 12:08:12;;;;;;;6.95;6.20;;;21.50;99.90;;;;;;5071301;28;20040;-76
2021/08/22 12:10:41;;;;;;;6.93;6.30;;;21.30;99.90;;;;;;5054754;28;20033;-76
2021/08/22 12:13:21;;;;;;;7.55;6.38;;;21.20;99.90;;;;;;5053619;28;20382;-77
2021/08/22 12:15:50;;;;;;;7.13;6.43;;;21.10;99.90;;;;;;5055761;28;20348;-81
2021/08/22 12:18:30;;;;;;;6.35;5.75;;;21.00;99.90;;;;;;5066029;28;20040;-77
2021/08/22 12:21:14;;;;;;;7.93;6.63;;;20.90;99.90;;;;;;5052220;28;20029;-80
2021/08/22 12:23:42;;;;;;;7.43;6.50;;;20.80;99.90;;;;;;5059691;28;20375;-79
2021/08/22 12:26:29;;;;;;;7.75;6.90;;;21.00;99.90;;;;;;5052456;28;20451;-79
2021/08/22 12:28:57;;;;;;;8.35;6.85;;;21.30;99.90;;;;;;5070443;28;20040;-82
2021/08/22 12:31:34;;;;;;;7.75;6.45;;;21.70;99.90;;;;;;5055547;28;20025;-79
2021/08/22 12:34:06;;;;;;;6.85;6.15;;;21.80;99.90;;;;;;5058078;28;20053;-79
2021/08/22 12:36:35;;;;;;;5.93;5.32;;;21.80;99.90;;;;;;5068250;28;20041;-79
2021/08/22 12:39:03;;;;;;;7.38;6.20;;;21.90;99.90;;;;;;5062894;28;20394;-78
2021/08/22 12:41:51;;;;;;;7.25;6.55;;;21.80;99.90;;;;;;5053573;28;20351;-79
2021/08/22 12:44:23;;;;;;;9.32;6.78;;;21.50;99.90;;;;;;5067692;28;20033;-80
2021/08/22 12:46:57;;;;;;;13.40;8.05;;;21.20;99.90;;;;;;5063142;28;20092;-77
2021/08/22 12:49:24;;;;;;;10.27;8.07;;;20.60;99.90;;;;;;5075790;28;20016;-77
2021/08/22 12:51:52;;;;;;;10.25;8.18;;;19.90;99.90;;;;;;5077905;28;20032;-79
2021/08/22 12:54:21;;;;;;;9.30;8.40;;;19.50;99.90;;;;;;5078600;28;20028;-85
2021/08/22 12:56:48;;;;;;;9.85;8.95;;;19.30;99.90;;;;;;5077654;28;20028;-79
2021/08/22 12:59:15;;;;;;;9.57;8.55;;;19.30;99.90;;;;;;5076518;28;20025;-80